Time;durP1;ratioP1;P1;durP2;ratioP2;P2;SDS_P1;SDS_P2;PMS_P1;PMS_P2;Temp;Humidity;BMP_temperature;BMP_pressure;BME280_temperature;BME280_humidity;BME280_pressure;Samples;Min_cycle;Max_cycle;Signal;HPM_P1;HPM_P2
2022/11/04 00:01:55;;;;;;;5.25;1.42;;;9.10;99.90;;;;;;5077226;28;20027;-75
2022/11/04 00:04:24;;;;;;;5.97;1.80;;;9.10;99.90;;;;;;5095555;28;20106;-74
2022/11/04 00:06:50;;;;;;;6.22;2.40;;;9.10;99.90;;;;;;5088117;28;20114;-74
2022/11/04 00:09:22;;;;;;;10.20;2.50;;;9.10;99.90;;;;;;5071829;28;20166;-75
2022/11/04 00:14:33;;;;;;;7.13;1.98;;;9.00;99.90;;;;;;5088964;28;20058;-75
2022/11/04 00:33:24;;;;;;;5.70;2.22;;;8.80;99.90;;;;;;5096682;28;20070;-74
2022/11/04 00:33:43;;;;;;;6.50;2.85;;;8.80;97.50;;;;;;5091478;28;20130;-75
2022/11/04 00:36:09;;;;;;;6.30;1.92;;;8.80;83.50;;;;;;5077523;28;20131;-74
2022/11/04 00:38:34;;;;;;;5.97;1.40;;;8.80;74.40;;;;;;5094003;28;20035;-74
2022/11/04 00:41:00;;;;;;;6.85;1.70;;;8.70;66.00;;;;;;5084560;28;20458;-74
2022/11/04 00:43:25;;;;;;;5.55;1.55;;;8.70;57.90;;;;;;5082557;28;20034;-74
2022/11/04 00:45:51;;;;;;;7.25;1.63;;;8.70;53.90;;;;;;5082028;28;20027;-75
2022/11/04 00:48:16;;;;;;;3.58;1.10;;;8.80;51.90;;;;;;5099092;28;20035;-74
2022/11/04 00:50:42;;;;;;;7.60;1.50;;;8.80;51.50;;;;;;5096291;28;20020;-75
2022/11/04 00:53:08;;;;;;;2.45;1.08;;;8.80;51.30;;;;;;5062138;28;20029;-75
2022/11/04 00:55:34;;;;;;;5.30;0.90;;;8.80;51.20;;;;;;5064335;28;20024;-74
2022/11/04 00:57:59;;;;;;;3.50;1.02;;;8.80;50.90;;;;;;5094060;28;20054;-75
2022/11/04 01:00:25;;;;;;;5.10;1.45;;;8.80;50.90;;;;;;5084242;28;20043;-75
2022/11/04 01:02:51;;;;;;;4.60;1.00;;;8.80;54.40;;;;;;5093724;28;20499;-74
2022/11/04 01:05:17;;;;;;;3.05;1.10;;;8.80;55.60;;;;;;5077719;28;20101;-75
2022/11/04 01:07:42;;;;;;;7.05;1.10;;;8.90;54.50;;;;;;5082552;28;20084;-76
2022/11/04 01:10:08;;;;;;;2.75;1.10;;;8.80;54.90;;;;;;5094915;28;20103;-74
2022/11/04 01:12:34;;;;;;;3.22;0.85;;;8.80;55.10;;;;;;5089058;28;20100;-74
2022/11/04 01:14:59;;;;;;;3.10;0.75;;;8.90;56.00;;;;;;5084504;28;20351;-75
2022/11/04 01:17:25;;;;;;;1.42;0.70;;;8.90;56.30;;;;;;5060610;28;20099;-74
2022/11/04 01:19:51;;;;;;;2.92;0.75;;;8.90;56.30;;;;;;5096120;28;20039;-74
2022/11/04 01:22:16;;;;;;;3.13;1.05;;;8.90;56.10;;;;;;5082710;28;20122;-75
2022/11/04 01:24:42;;;;;;;2.55;1.10;;;8.90;56.60;;;;;;5075106;28;20110;-75
2022/11/04 01:27:08;;;;;;;4.88;1.20;;;8.80;57.00;;;;;;5062171;28;20498;-74
2022/11/04 01:29:33;;;;;;;5.75;1.10;;;8.90;57.10;;;;;;5062930;28;20039;-74
2022/11/04 01:31:59;;;;;;;2.50;0.80;;;8.90;57.00;;;;;;5084923;28;20028;-75
2022/11/04 01:34:24;;;;;;;1.25;0.70;;;8.90;57.30;;;;;;5096680;28;20049;-74
2022/11/04 01:36:50;;;;;;;4.70;1.00;;;8.90;57.10;;;;;;5080069;28;20043;-73
2022/11/04 01:39:16;;;;;;;3.70;0.85;;;8.90;57.50;;;;;;5082924;28;20450;-75
2022/11/04 01:41:41;;;;;;;3.78;0.70;;;8.90;58.00;;;;;;5086610;28;20119;-75
2022/11/04 01:44:41;;;;;;;1.75;0.65;;;8.90;58.80;;;;;;5068836;28;20055;-75
2022/11/04 01:47:25;;;;;;;3.83;0.80;;;8.80;61.60;;;;;;5060086;28;20118;-75
2022/11/04 01:49:56;;;;;;;1.80;0.70;;;8.90;62.90;;;;;;5082565;28;20023;-74
2022/11/04 01:52:31;;;;;;;2.92;1.00;;;8.90;63.80;;;;;;5078555;28;20023;-75
2022/11/04 01:55:01;;;;;;;1.77;0.65;;;8.90;64.80;;;;;;5079419;28;20036;-75
2022/11/04 01:57:33;;;;;;;3.65;0.70;;;8.90;82.10;;;;;;5079551;28;20097;-75
2022/11/04 02:00:02;;;;;;;3.42;1.00;;;8.80;99.90;;;;;;5060489;28;20098;-75
2022/11/04 02:02:29;;;;;;;4.05;1.30;;;8.80;99.90;;;;;;5076177;28;20039;-75
2022/11/04 02:04:55;;;;;;;3.22;1.20;;;8.80;99.90;;;;;;5097298;28;20115;-75
2022/11/04 02:07:22;;;;;;;2.35;1.17;;;8.70;99.90;;;;;;5094945;28;20211;-75
2022/11/04 02:09:48;;;;;;;8.00;1.85;;;8.70;99.90;;;;;;5090280;28;20031;-75
2022/11/04 02:14:59;;;;;;;3.90;2.00;;;8.60;99.90;;;;;;5096187;28;20051;-75
2022/11/04 02:17:40;;;;;;;4.38;2.20;;;8.50;99.90;;;;;;5094700;28;20498;-75
2022/11/04 02:20:17;;;;;;;4.80;2.33;;;8.50;99.90;;;;;;5095802;28;20030;-75
2022/11/04 02:22:55;;;;;;;7.75;1.88;;;8.40;99.90;;;;;;5078428;28;20042;-76
2022/11/04 02:25:36;;;;;;;3.35;1.80;;;8.40;99.90;;;;;;5081619;28;20016;-75
2022/11/04 02:28:36;;;;;;;4.07;1.90;;;8.40;99.90;;;;;;5098009;28;20031;-75
2022/11/04 02:31:16;;;;;;;7.65;2.10;;;8.40;99.90;;;;;;5092398;28;20507;-75
2022/11/04 02:33:47;;;;;;;4.25;1.85;;;8.50;99.90;;;;;;5067459;28;20076;-75
2022/11/04 02:36:36;;;;;;;5.03;1.60;;;8.50;99.90;;;;;;5092342;28;20046;-75
2022/11/04 02:39:33;;;;;;;3.75;1.80;;;8.50;99.90;;;;;;5042989;28;20058;-75
2022/11/04 02:42:10;;;;;;;2.78;1.42;;;8.40;99.90;;;;;;5087995;28;20087;-75
2022/11/04 02:45:13;;;;;;;2.95;1.83;;;8.50;99.90;;;;;;5062060;28;20040;-75
2022/11/04 02:47:43;;;;;;;4.07;2.03;;;8.50;99.90;;;;;;5049582;28;20060;-75
2022/11/04 02:50:15;;;;;;;5.37;2.03;;;8.50;99.90;;;;;;5058423;28;20040;-75
2022/11/04 02:53:13;;;;;;;5.63;2.15;;;8.50;99.90;;;;;;5057220;28;20046;-74
2022/11/04 02:55:44;;;;;;;7.05;2.17;;;8.50;99.90;;;;;;5043272;28;20055;-74
2022/11/04 02:58:17;;;;;;;3.53;1.80;;;8.60;99.90;;;;;;5093158;28;20054;-74
2022/11/04 03:00:45;;;;;;;7.15;2.05;;;8.60;99.90;;;;;;5082151;28;20028;-74
2022/11/04 03:03:16;;;;;;;7.75;2.50;;;8.60;99.90;;;;;;5058410;28;20032;-75
2022/11/04 03:05:46;;;;;;;4.20;2.05;;;8.50;99.90;;;;;;5060173;28;20066;-74
2022/11/04 03:08:18;;;;;;;3.45;1.50;;;8.60;99.90;;;;;;5088220;28;20047;-74
2022/11/04 03:10:49;;;;;;;6.45;1.98;;;8.50;99.90;;;;;;5067549;28;20028;-75
2022/11/04 03:13:38;;;;;;;2.85;1.80;;;8.50;99.90;;;;;;5081144;28;20054;-74
2022/11/04 03:16:10;;;;;;;3.67;1.38;;;8.50;99.90;;;;;;5062844;28;20057;-75
2022/11/04 03:19:17;;;;;;;5.10;1.63;;;8.50;99.90;;;;;;5089855;28;20092;-74
2022/11/04 03:21:53;;;;;;;5.32;2.00;;;8.50;99.90;;;;;;5004367;28;20033;-75
2022/11/04 03:24:19;;;;;;;5.32;1.60;;;8.50;99.90;;;;;;5051135;28;20055;-74
2022/11/04 03:27:03;;;;;;;2.83;1.42;;;8.50;99.90;;;;;;5075467;28;20126;-74
2022/11/04 03:29:36;;;;;;;1.77;1.15;;;8.60;99.90;;;;;;5078740;28;20031;-74
2022/11/04 03:32:21;;;;;;;4.25;1.58;;;8.60;99.90;;;;;;5083414;28;20032;-75
2022/11/04 03:34:47;;;;;;;3.38;1.17;;;8.60;99.90;;;;;;5081860;28;20078;-74
2022/11/04 03:37:13;;;;;;;2.47;1.55;;;8.60;99.90;;;;;;5070978;28;20047;-74
2022/11/04 03:39:39;;;;;;;4.88;1.10;;;8.50;99.90;;;;;;5097768;28;20394;-75
2022/11/04 03:42:18;;;;;;;2.47;1.10;;;8.60;99.90;;;;;;5077604;28;20106;-76
2022/11/04 03:44:52;;;;;;;4.95;1.15;;;8.50;99.90;;;;;;5085305;28;20032;-75
2022/11/04 03:47:21;;;;;;;6.93;1.70;;;8.60;99.90;;;;;;5071895;28;20546;-75
2022/11/04 03:49:48;;;;;;;3.95;1.02;;;8.60;99.90;;;;;;5082437;28;20022;-75
2022/11/04 03:52:16;;;;;;;1.23;0.80;;;8.60;99.90;;;;;;5080741;28;20089;-75
2022/11/04 03:54:42;;;;;;;4.55;1.40;;;8.50;99.90;;;;;;5066214;28;20400;-75
2022/11/04 03:58:03;;;;;;;1.20;0.70;;;8.60;99.90;;;;;;5095815;28;20625;-75
2022/11/04 04:00:37;;;;;;;7.38;1.15;;;8.50;99.90;;;;;;5011049;28;20040;-75
2022/11/04 04:03:14;;;;;;;4.68;0.73;;;8.50;99.90;;;;;;5084751;28;20854;-75
2022/11/04 04:06:01;;;;;;;2.03;0.68;;;8.50;99.90;;;;;;5092364;28;20475;-75
2022/11/04 04:08:45;;;;;;;4.43;1.10;;;8.50;99.90;;;;;;5083392;28;20458;-75
2022/11/04 04:11:38;;;;;;;5.13;1.20;;;8.60;99.90;;;;;;5039851;28;20032;-75
2022/11/04 04:14:07;;;;;;;6.43;1.63;;;8.50;99.90;;;;;;5055665;28;20028;-75
2022/11/04 04:16:39;;;;;;;6.95;1.50;;;8.60;99.90;;;;;;5077623;28;20475;-74
2022/11/04 04:19:19;;;;;;;4.68;1.48;;;8.60;99.90;;;;;;5059692;28;20039;-76
2022/11/04 04:21:50;;;;;;;6.00;2.22;;;8.70;99.90;;;;;;5098937;28;20100;-76
2022/11/04 04:29:52;;;;;;;10.02;3.20;;;8.60;99.90;;;;;;5060362;28;20107;-76
2022/11/04 04:32:21;;;;;;;6.20;3.40;;;8.60;99.90;;;;;;5082147;28;20093;-76
2022/11/04 04:34:47;;;;;;;9.00;4.63;;;8.70;99.90;;;;;;5076401;28;20042;-75
2022/11/04 04:37:21;;;;;;;9.15;4.57;;;8.60;99.90;;;;;;5075438;28;20407;-75
2022/11/04 04:45:35;;;;;;;9.10;4.88;;;8.60;99.90;;;;;;5080574;28;20031;-76
2022/11/04 04:48:01;;;;;;;16.55;6.38;;;8.60;99.90;;;;;;5097567;28;20019;-76
2022/11/04 04:50:43;;;;;;;13.10;5.22;;;8.60;99.90;;;;;;5055858;28;20055;-76
2022/11/04 04:53:10;;;;;;;11.15;5.68;;;8.60;99.90;;;;;;5077162;28;20028;-75
2022/11/04 04:55:35;;;;;;;13.48;5.20;;;8.60;99.90;;;;;;5079479;28;20054;-75
2022/11/04 04:58:01;;;;;;;15.05;6.25;;;8.60;99.90;;;;;;5097810;28;20055;-76
2022/11/04 05:00:28;;;;;;;13.68;5.93;;;8.60;99.90;;;;;;5090178;28;20028;-75
2022/11/04 05:02:53;;;;;;;18.45;6.03;;;8.60;99.90;;;;;;5054934;28;20105;-75
2022/11/04 05:05:19;;;;;;;14.65;6.50;;;8.60;99.90;;;;;;5077244;28;20024;-75
2022/11/04 05:07:46;;;;;;;13.75;5.93;;;8.60;99.90;;;;;;5084178;28;20028;-75
2022/11/04 05:10:14;;;;;;;14.02;6.07;;;8.60;99.90;;;;;;5082891;28;20082;-75
2022/11/04 05:15:26;;;;;;;16.63;5.40;;;8.60;99.90;;;;;;5078802;28;20151;-75
2022/11/04 05:17:56;;;;;;;12.05;5.22;;;8.60;99.90;;;;;;5071548;28;20402;-75
2022/11/04 05:20:22;;;;;;;12.68;5.30;;;8.60;99.90;;;;;;5077699;28;20185;-75
2022/11/04 05:22:47;;;;;;;12.32;4.57;;;8.70;99.90;;;;;;5067949;28;20024;-74
2022/11/04 05:25:13;;;;;;;11.45;4.53;;;8.70;99.90;;;;;;5089811;28;20027;-75
2022/11/04 05:27:39;;;;;;;14.45;4.20;;;8.70;99.90;;;;;;5098646;28;20028;-75
2022/11/04 05:30:05;;;;;;;17.67;4.68;;;8.80;99.90;;;;;;5070785;28;20490;-75
2022/11/04 05:32:31;;;;;;;7.07;4.05;;;8.70;99.90;;;;;;5092467;28;20690;-75
2022/11/04 05:34:56;;;;;;;16.77;5.13;;;8.70;99.90;;;;;;5082071;28;20067;-75
2022/11/04 05:37:22;;;;;;;12.05;4.70;;;8.60;99.90;;;;;;5092797;28;20116;-76
2022/11/04 05:39:48;;;;;;;17.20;5.13;;;8.60;99.90;;;;;;5066056;28;20028;-75
2022/11/04 05:42:13;;;;;;;14.35;4.80;;;8.60;99.90;;;;;;5095405;28;20038;-74
2022/11/04 05:44:39;;;;;;;14.05;4.78;;;8.50;99.90;;;;;;5097189;28;20134;-75
2022/11/04 05:47:04;;;;;;;12.23;4.50;;;8.50;99.90;;;;;;5072877;28;20028;-75
2022/11/04 05:49:30;;;;;;;15.48;4.50;;;8.50;99.90;;;;;;5093090;28;20153;-75
2022/11/04 05:51:56;;;;;;;15.98;4.70;;;8.50;99.90;;;;;;5082469;28;20039;-75
2022/11/04 05:54:22;;;;;;;10.27;4.30;;;8.40;99.90;;;;;;5078466;28;20115;-75
2022/11/04 05:56:47;;;;;;;18.23;5.22;;;8.30;99.90;;;;;;5073869;28;20487;-75
2022/11/04 05:59:13;;;;;;;10.25;4.70;;;8.20;99.90;;;;;;5078971;28;20036;-75
2022/11/04 06:01:40;;;;;;;16.88;5.10;;;8.20;99.90;;;;;;5063425;28;20028;-74
2022/11/04 06:04:06;;;;;;;14.65;5.32;;;8.10;99.90;;;;;;5066529;28;20552;-75
2022/11/04 06:06:34;;;;;;;13.68;4.60;;;8.00;99.90;;;;;;5068758;28;20020;-75
2022/11/04 06:09:00;;;;;;;9.32;4.10;;;7.90;99.90;;;;;;5070890;28;20028;-75
2022/11/04 06:11:27;;;;;;;11.10;4.50;;;7.90;99.90;;;;;;5063810;28;20036;-75
2022/11/04 06:13:54;;;;;;;16.55;4.40;;;7.90;99.90;;;;;;5066133;28;20137;-74
2022/11/04 06:16:20;;;;;;;17.85;5.07;;;7.80;99.90;;;;;;5076660;28;20031;-74
2022/11/04 06:18:46;;;;;;;10.90;4.82;;;7.80;99.90;;;;;;5076865;28;20039;-74
2022/11/04 06:21:14;;;;;;;12.05;4.25;;;7.70;99.90;;;;;;5076613;28;20536;-74
2022/11/04 06:23:41;;;;;;;10.73;4.22;;;7.70;99.90;;;;;;5094810;28;20038;-74
2022/11/04 06:26:07;;;;;;;12.88;4.35;;;7.70;99.90;;;;;;5080426;28;20030;-74
2022/11/04 06:28:33;;;;;;;14.23;4.68;;;7.60;99.90;;;;;;5075605;28;20105;-74
2022/11/04 06:31:01;;;;;;;13.93;4.88;;;7.60;99.90;;;;;;5081954;28;20039;-74
2022/11/04 06:33:28;;;;;;;10.93;3.70;;;7.60;99.90;;;;;;5077014;28;20065;-74
2022/11/04 06:35:58;;;;;;;11.95;4.10;;;7.50;99.90;;;;;;5082226;28;20115;-74
2022/11/04 06:38:24;;;;;;;16.00;4.15;;;7.50;99.90;;;;;;5096477;28;20050;-74
2022/11/04 06:40:50;;;;;;;12.75;5.32;;;7.50;99.90;;;;;;5073538;28;20359;-74
2022/11/04 06:43:16;;;;;;;11.50;4.78;;;7.50;99.90;;;;;;5076470;28;20047;-74
2022/11/04 06:45:41;;;;;;;14.07;4.70;;;7.40;99.90;;;;;;5077574;28;20477;-74
2022/11/04 06:48:07;;;;;;;15.40;5.22;;;7.40;99.90;;;;;;5077033;28;20080;-74
2022/11/04 06:50:33;;;;;;;16.60;5.15;;;7.30;99.90;;;;;;5078801;28;20130;-74
2022/11/04 06:52:58;;;;;;;12.10;5.35;;;7.30;99.90;;;;;;5070787;28;20490;-74
2022/11/04 06:55:24;;;;;;;20.50;6.05;;;7.20;99.90;;;;;;5068198;28;20059;-74
2022/11/04 06:57:50;;;;;;;17.33;5.90;;;7.20;99.90;;;;;;5071008;28;20066;-73
2022/11/04 07:00:16;;;;;;;12.00;5.63;;;7.20;99.90;;;;;;5077682;28;20179;-74
2022/11/04 07:02:42;;;;;;;21.60;5.65;;;7.20;99.90;;;;;;5072197;28;20107;-74
2022/11/04 07:05:08;;;;;;;28.90;9.52;;;7.20;99.90;;;;;;5082353;28;20036;-74
2022/11/04 07:07:34;;;;;;;18.23;7.68;;;7.10;99.90;;;;;;5073684;28;20128;-74
2022/11/04 07:09:59;;;;;;;16.00;6.65;;;7.10;99.90;;;;;;5074353;28;20533;-74
2022/11/04 07:12:25;;;;;;;19.90;7.28;;;7.20;99.90;;;;;;5059685;28;20027;-74
2022/11/04 07:14:51;;;;;;;25.65;10.55;;;7.20;99.90;;;;;;5076384;28;20024;-74
2022/11/04 07:17:17;;;;;;;15.68;7.30;;;7.10;99.90;;;;;;5057530;28;20434;-74
2022/11/04 07:19:44;;;;;;;16.75;7.22;;;7.10;99.90;;;;;;5074836;28;20403;-74
2022/11/04 07:22:09;;;;;;;17.98;7.75;;;7.10;99.90;;;;;;5078006;28;20502;-72
2022/11/04 07:24:35;;;;;;;18.42;6.22;;;7.10;99.90;;;;;;5058397;28;20032;-74
2022/11/04 07:27:00;;;;;;;16.85;7.50;;;7.10;99.90;;;;;;5078065;28;20028;-74
2022/11/04 07:29:27;;;;;;;13.98;6.38;;;7.10;99.90;;;;;;5078100;28;20040;-74
2022/11/04 07:31:53;;;;;;;13.82;5.72;;;7.10;99.90;;;;;;5059658;28;20056;-73
2022/11/04 07:34:19;;;;;;;15.30;5.72;;;7.10;99.90;;;;;;5077280;28;20112;-74
2022/11/04 07:36:44;;;;;;;16.35;6.03;;;7.10;99.90;;;;;;5078524;28;20158;-74
2022/11/04 07:39:10;;;;;;;19.33;6.47;;;7.20;99.90;;;;;;5085788;28;20039;-73
2022/11/04 07:41:35;;;;;;;18.42;6.13;;;7.20;99.90;;;;;;5086230;28;20125;-74
2022/11/04 07:44:04;;;;;;;17.20;6.20;;;7.20;99.90;;;;;;5078806;28;20204;-74
2022/11/04 07:46:33;;;;;;;15.65;6.00;;;7.30;99.90;;;;;;5077763;28;20099;-74
2022/11/04 07:48:58;;;;;;;13.02;6.78;;;7.40;99.90;;;;;;5078874;28;20093;-74
2022/11/04 07:51:25;;;;;;;14.25;6.80;;;7.50;99.90;;;;;;5096771;28;20660;-74
2022/11/04 07:53:51;;;;;;;23.92;6.78;;;7.60;99.90;;;;;;5095264;28;20470;-74
2022/11/04 07:56:17;;;;;;;15.68;6.28;;;7.80;99.90;;;;;;5083814;28;20132;-74
2022/11/04 07:58:44;;;;;;;13.75;7.10;;;7.80;99.90;;;;;;5066650;28;20040;-74
2022/11/04 08:01:16;;;;;;;16.73;7.15;;;7.90;99.90;;;;;;5085930;28;20527;-74
2022/11/04 08:03:41;;;;;;;17.50;6.68;;;8.00;99.90;;;;;;5073857;28;20027;-74
2022/11/04 08:06:10;;;;;;;17.88;6.47;;;8.10;99.90;;;;;;5091592;28;20100;-74
2022/11/04 08:08:36;;;;;;;20.67;7.82;;;8.30;99.90;;;;;;5097076;28;20107;-74
2022/11/04 08:11:08;;;;;;;30.10;9.63;;;8.50;99.90;;;;;;5080284;28;20678;-74
2022/11/04 08:13:36;;;;;;;21.27;9.63;;;8.70;99.90;;;;;;5077158;28;20030;-74
2022/11/04 08:16:04;;;;;;;32.05;10.52;;;9.20;99.90;;;;;;5059072;28;20078;-73
2022/11/04 08:18:31;;;;;;;14.23;7.70;;;10.00;99.90;;;;;;5070893;28;20126;-73
2022/11/04 08:20:57;;;;;;;16.48;7.60;;;10.70;99.90;;;;;;5070732;28;20107;-74
2022/11/04 08:23:23;;;;;;;13.98;5.20;;;11.10;99.90;;;;;;5074615;28;20046;-74
2022/11/04 08:25:48;;;;;;;12.52;5.22;;;11.00;98.80;;;;;;5054254;28;20033;-75
2022/11/04 08:28:17;;;;;;;44.55;21.80;;;10.90;98.60;;;;;;5072584;28;20016;-74
2022/11/04 08:30:57;;;;;;;21.33;9.93;;;10.70;98.70;;;;;;5072819;28;20059;-74
2022/11/04 08:33:25;;;;;;;18.13;7.43;;;10.40;98.00;;;;;;5074076;28;20032;-73
2022/11/04 08:35:51;;;;;;;10.27;5.15;;;10.40;99.20;;;;;;5088958;28;20266;-73
2022/11/04 08:38:16;;;;;;;13.93;5.57;;;10.70;98.60;;;;;;5092641;28;20040;-73
2022/11/04 08:40:42;;;;;;;11.98;4.53;;;10.70;98.60;;;;;;5076895;28;20444;-74
2022/11/04 08:43:08;;;;;;;14.35;5.45;;;10.70;97.90;;;;;;5058993;28;20082;-73
2022/11/04 08:45:41;;;;;;;8.77;4.72;;;10.40;98.10;;;;;;5075240;28;20081;-73
2022/11/04 08:48:08;;;;;;;15.10;5.38;;;10.50;98.10;;;;;;5074582;28;20047;-74
2022/11/04 08:50:33;;;;;;;11.27;5.35;;;10.70;98.60;;;;;;5095634;28;20466;-73
2022/11/04 08:52:59;;;;;;;11.18;4.47;;;10.80;97.50;;;;;;5075447;28;20047;-74
2022/11/04 08:55:27;;;;;;;9.80;4.30;;;11.10;96.80;;;;;;5089800;28;22120;-73
2022/11/04 08:57:53;;;;;;;11.43;4.95;;;11.50;95.90;;;;;;5076501;28;20458;-73
2022/11/04 09:00:19;;;;;;;7.93;3.78;;;12.00;95.50;;;;;;5075816;28;20126;-74
2022/11/04 09:02:45;;;;;;;8.27;3.47;;;13.70;94.40;;;;;;5076218;28;20134;-73
2022/11/04 09:05:11;;;;;;;8.45;3.38;;;15.70;91.40;;;;;;5076117;28;20103;-74
2022/11/04 09:07:37;;;;;;;7.72;3.38;;;17.30;83.50;;;;;;5076871;28;20089;-74
2022/11/04 09:10:04;;;;;;;5.70;3.03;;;18.30;81.00;;;;;;5073765;28;20576;-74
2022/11/04 09:12:30;;;;;;;6.28;2.75;;;18.80;75.40;;;;;;5075127;28;20055;-74
2022/11/04 09:14:56;;;;;;;7.30;2.70;;;20.00;71.10;;;;;;5074348;28;20368;-74
2022/11/04 09:17:22;;;;;;;7.13;2.75;;;21.10;59.00;;;;;;5056888;28;20143;-74
2022/11/04 09:19:48;;;;;;;9.75;2.67;;;21.90;55.90;;;;;;5079194;28;20161;-74
2022/11/04 09:22:14;;;;;;;6.10;2.67;;;22.80;52.90;;;;;;5078639;28;20095;-74
2022/11/04 09:24:39;;;;;;;7.07;2.25;;;22.50;46.80;;;;;;5066727;28;20166;-74
2022/11/04 09:27:05;;;;;;;6.75;2.65;;;22.70;47.60;;;;;;5068988;28;20114;-74
2022/11/04 09:29:32;;;;;;;8.60;3.25;;;22.30;45.90;;;;;;5076713;28;20125;-74
2022/11/04 09:31:59;;;;;;;8.93;3.03;;;22.10;46.60;;;;;;5066874;28;20258;-74
2022/11/04 09:34:24;;;;;;;6.47;2.67;;;22.50;46.40;;;;;;5068488;28;20035;-74
2022/11/04 09:36:53;;;;;;;5.75;2.30;;;23.40;44.90;;;;;;5063565;28;20036;-74
2022/11/04 09:39:19;;;;;;;8.00;2.47;;;24.00;40.70;;;;;;5063487;28;20979;-74
2022/11/04 09:42:13;;;;;;;6.80;2.50;;;24.40;39.70;;;;;;5062322;28;20028;-74
2022/11/04 09:44:55;;;;;;;5.47;2.38;;;24.70;38.50;;;;;;5066641;28;20439;-74
2022/11/04 09:47:22;;;;;;;11.25;2.50;;;24.80;39.30;;;;;;5072785;28;20020;-73
2022/11/04 09:49:52;;;;;;;6.93;2.33;;;24.80;39.10;;;;;;5078904;28;20118;-74
2022/11/04 09:52:25;;;;;;;5.88;2.10;;;24.70;39.10;;;;;;5079337;28;20163;-74
2022/11/04 09:54:58;;;;;;;7.45;2.40;;;23.70;41.20;;;;;;5056367;28;21654;-73
2022/11/04 09:57:24;;;;;;;8.60;2.10;;;23.40;40.10;;;;;;5063204;28;20460;-74
2022/11/04 09:59:50;;;;;;;7.55;2.03;;;24.10;40.50;;;;;;5076488;28;20028;-74
2022/11/04 10:02:21;;;;;;;8.52;1.85;;;25.00;38.80;;;;;;5059887;28;20240;-74
2022/11/04 10:04:47;;;;;;;;;;;25.40;37.30;;;;;;5080381;28;20058;-74
2022/11/04 10:07:37;;;;;;;5.68;1.80;;;25.80;37.20;;;;;;4708093;28;10000465;-74
2022/11/04 10:10:06;;;;;;;7.55;1.77;;;26.10;37.00;;;;;;5076222;28;20045;-74
2022/11/04 10:12:50;;;;;;;7.38;1.80;;;26.00;34.40;;;;;;5055218;28;20055;-74
2022/11/04 10:15:27;;;;;;;4.53;1.70;;;26.20;35.20;;;;;;5070540;28;20024;-74
2022/11/04 10:18:05;;;;;;;5.60;1.55;;;27.20;36.30;;;;;;5070088;28;20036;-74
2022/11/04 10:20:43;;;;;;;6.68;1.80;;;27.20;33.90;;;;;;5056488;28;20096;-74
2022/11/04 10:23:44;;;;;;;7.80;1.58;;;27.60;33.70;;;;;;5068070;28;20067;-73
2022/11/04 10:26:22;;;;;;;6.38;1.83;;;27.50;32.30;;;;;;5049065;28;20643;-74
2022/11/04 10:29:05;;;;;;;6.00;1.63;;;26.60;34.00;;;;;;5065334;28;20028;-74
2022/11/04 10:31:37;;;;;;;5.10;1.60;;;27.50;33.80;;;;;;5072247;28;20028;-74
2022/11/04 10:34:14;;;;;;;6.40;1.88;;;27.80;32.40;;;;;;5076160;28;20020;-74
2022/11/04 10:36:40;;;;;;;6.30;1.60;;;27.30;32.40;;;;;;5073128;28;20297;-74
2022/11/04 10:39:22;;;;;;;6.63;2.00;;;28.20;33.50;;;;;;5075644;28;20590;-74
2022/11/04 10:41:47;;;;;;;5.15;1.52;;;27.50;31.70;;;;;;5070896;28;20121;-74
2022/11/04 10:44:24;;;;;;;8.75;2.03;;;27.20;34.20;;;;;;5066858;28;20058;-72
2022/11/04 10:47:10;;;;;;;3.95;1.77;;;27.70;32.90;;;;;;5076353;28;20044;-72
2022/11/04 10:49:46;;;;;;;7.75;2.20;;;28.10;33.60;;;;;;5073602;28;20051;-73
2022/11/04 10:52:12;;;;;;;5.53;1.92;;;28.10;31.60;;;;;;5059025;28;20032;-73
2022/11/04 10:54:43;;;;;;;5.03;1.80;;;28.00;32.00;;;;;;5074833;28;20407;-74
2022/11/04 10:57:11;;;;;;;4.18;1.92;;;27.10;31.80;;;;;;5072985;28;20043;-73
2022/11/04 10:59:55;;;;;;;5.65;1.92;;;27.20;33.30;;;;;;5077111;28;20056;-73
2022/11/04 11:02:36;;;;;;;5.10;1.58;;;26.90;33.20;;;;;;5075378;28;20323;-73
2022/11/04 11:05:17;;;;;;;3.30;1.67;;;26.90;33.90;;;;;;5075621;28;20111;-73
2022/11/04 11:07:51;;;;;;;5.68;1.63;;;26.90;34.10;;;;;;5073053;28;20030;-74
2022/11/04 11:10:29;;;;;;;5.38;1.45;;;26.40;37.00;;;;;;5067108;28;20043;-75
2022/11/04 11:12:56;;;;;;;5.57;1.55;;;24.60;38.50;;;;;;5066062;28;20055;-74
2022/11/04 11:15:28;;;;;;;5.75;1.58;;;23.20;40.70;;;;;;5067789;28;20074;-74
2022/11/04 11:18:17;;;;;;;5.93;1.60;;;22.40;44.30;;;;;;5067668;28;20549;-73
2022/11/04 11:21:07;;;;;;;6.15;1.80;;;21.60;47.30;;;;;;5064439;28;20028;-74
2022/11/04 11:23:40;;;;;;;7.85;1.80;;;20.80;47.20;;;;;;5057788;28;20028;-74
2022/11/04 11:26:09;;;;;;;8.63;2.25;;;20.00;49.60;;;;;;5062033;28;20428;-75
2022/11/04 11:28:38;;;;;;;8.55;1.83;;;19.10;51.40;;;;;;5073441;28;20032;-74
2022/11/04 11:31:15;;;;;;;5.43;1.90;;;18.30;53.30;;;;;;5064763;28;20363;-75
2022/11/04 11:33:48;;;;;;;5.05;1.80;;;18.20;52.70;;;;;;5045951;28;20039;-74
2022/11/04 11:36:32;;;;;;;5.93;2.08;;;18.60;55.30;;;;;;5061774;28;20024;-74
2022/11/04 11:39:12;;;;;;;7.40;1.88;;;17.70;52.70;;;;;;5064172;28;20040;-73
2022/11/04 11:42:01;;;;;;;5.80;1.88;;;18.20;55.80;;;;;;5083272;28;20500;-75
2022/11/04 11:44:54;;;;;;;5.32;2.00;;;18.00;54.60;;;;;;5055572;28;20036;-74
2022/11/04 11:47:28;;;;;;;9.85;2.22;;;18.00;55.50;;;;;;5058743;28;20021;-73
2022/11/04 11:50:30;;;;;;;9.45;2.03;;;18.10;55.90;;;;;;5074309;28;20111;-73
2022/11/04 11:53:17;;;;;;;5.22;1.90;;;17.70;55.30;;;;;;5071518;28;20039;-75
2022/11/04 11:55:54;;;;;;;6.70;2.25;;;17.80;56.70;;;;;;5055518;28;20035;-74
2022/11/04 11:58:31;;;;;;;7.30;2.53;;;17.70;56.40;;;;;;5071432;28;20403;-74
2022/11/04 12:03:43;;;;;;;9.10;2.53;;;17.50;57.50;;;;;;5381782;22;20051;-75
2022/11/04 12:06:27;;;;;;;8.18;2.53;;;17.40;57.20;;;;;;5065564;28;20770;-75
2022/11/04 12:09:33;;;;;;;9.13;2.53;;;17.70;59.00;;;;;;5069299;28;20494;-74
2022/11/04 12:12:20;;;;;;;6.75;2.47;;;17.80;58.30;;;;;;4998246;28;20141;-74
2022/11/04 12:15:08;;;;;;;7.30;2.70;;;17.90;55.80;;;;;;5003112;28;20079;-75
2022/11/04 12:17:49;;;;;;;10.27;2.75;;;18.20;56.50;;;;;;5056827;28;20080;-75
2022/11/04 12:20:48;;;;;;;10.93;3.15;;;18.20;56.60;;;;;;5053379;28;20127;-74
2022/11/04 12:23:39;;;;;;;8.13;3.00;;;18.00;53.60;;;;;;5076365;28;20077;-75
2022/11/04 12:26:20;;;;;;;15.05;4.32;;;18.20;56.40;;;;;;5057871;28;20032;-75
2022/11/04 12:29:18;;;;;;;7.03;2.50;;;17.90;56.40;;;;;;5073091;28;20343;-74
2022/11/04 12:32:06;;;;;;;9.82;2.55;;;18.00;57.40;;;;;;5078102;28;20074;-75
2022/11/04 12:35:08;;;;;;;12.80;3.55;;;17.50;55.90;;;;;;5073688;28;20827;-75
2022/11/04 12:37:47;;;;;;;8.02;2.55;;;17.50;58.20;;;;;;5079101;28;20070;-75
2022/11/04 12:40:32;;;;;;;10.95;2.63;;;17.50;56.00;;;;;;5076320;28;20168;-74
2022/11/04 12:43:12;;;;;;;10.07;2.35;;;17.40;55.10;;;;;;5080272;28;20527;-74
2022/11/04 12:46:16;;;;;;;7.78;2.92;;;17.30;56.30;;;;;;5072887;28;20066;-75
2022/11/04 12:48:52;;;;;;;8.30;2.55;;;17.20;57.50;;;;;;5080715;28;20178;-75
2022/11/04 12:51:46;;;;;;;11.45;2.63;;;16.90;57.70;;;;;;4376112;28;9999924;-75
2022/11/04 12:54:30;;;;;;;11.00;2.70;;;17.20;59.10;;;;;;5061495;28;20143;-75
2022/11/04 12:57:14;;;;;;;7.00;2.40;;;17.30;58.40;;;;;;5081447;28;20036;-75
2022/11/04 13:00:24;;;;;;;11.95;2.90;;;17.00;57.30;;;;;;5080923;28;20105;-75
2022/11/04 13:03:32;;;;;;;8.70;2.58;;;16.80;60.50;;;;;;5054066;28;20037;-75
2022/11/04 13:06:08;;;;;;;13.35;2.92;;;16.90;57.20;;;;;;5071410;28;20028;-75
2022/11/04 13:08:56;;;;;;;7.88;2.20;;;17.00;56.50;;;;;;5070826;28;20127;-75
2022/11/04 13:11:33;;;;;;;10.25;2.50;;;17.00;58.70;;;;;;5071171;28;20024;-74
2022/11/04 13:13:58;;;;;;;7.75;2.08;;;16.70;56.20;;;;;;5075741;28;20508;-75
2022/11/04 13:16:26;;;;;;;5.53;1.85;;;16.30;59.50;;;;;;5078003;28;20028;-75
2022/11/04 13:18:52;;;;;;;9.80;2.17;;;16.50;59.50;;;;;;5070054;28;20098;-76
2022/11/04 13:21:26;;;;;;;5.68;1.90;;;16.70;58.50;;;;;;5075841;28;20765;-75
2022/11/04 13:23:56;;;;;;;5.05;1.60;;;16.40;58.10;;;;;;5072303;28;20206;-75
2022/11/04 13:26:21;;;;;;;9.10;1.95;;;16.40;57.90;;;;;;5073118;28;20107;-75
2022/11/04 13:29:20;;;;;;;7.03;1.90;;;16.60;58.10;;;;;;5057094;28;20036;-75
2022/11/04 13:32:04;;;;;;;7.88;1.50;;;16.70;60.90;;;;;;5075053;28;20063;-75
2022/11/04 13:34:57;;;;;;;8.60;1.67;;;16.70;56.90;;;;;;5051726;28;20600;-75
2022/11/04 13:37:35;;;;;;;7.82;2.10;;;16.60;60.60;;;;;;5073610;28;20042;-75
2022/11/04 13:40:16;;;;;;;7.43;1.58;;;16.40;59.30;;;;;;5070341;28;20068;-75
2022/11/04 13:42:51;;;;;;;9.43;1.67;;;16.30;59.80;;;;;;5074393;28;20522;-75
2022/11/04 13:45:18;;;;;;;4.22;1.50;;;16.00;60.00;;;;;;5079289;28;20036;-76
2022/11/04 13:47:54;;;;;;;5.20;1.50;;;15.50;60.70;;;;;;5078318;28;20043;-74
2022/11/04 13:50:38;;;;;;;4.93;1.25;;;15.10;62.10;;;;;;5076226;28;20610;-75
2022/11/04 13:53:07;;;;;;;5.18;1.30;;;14.90;62.80;;;;;;5064052;28;20433;-75